createdAt,value
2022-11-09T00:01:40.021Z,35.30
2022-11-09T00:04:07.957Z,35.35
2022-11-09T00:06:35.537Z,37.10
2022-11-09T00:09:07.915Z,38.15
2022-11-09T00:11:35.778Z,32.83
2022-11-09T00:14:02.418Z,38.35
2022-11-09T00:16:29.178Z,37.53
2022-11-09T00:18:56.217Z,34.72
2022-11-09T00:21:24.871Z,33.10
2022-11-09T00:23:52.340Z,34.75
2022-11-09T00:26:20.743Z,32.85
2022-11-09T00:28:47.888Z,29.83
2022-11-09T00:31:17.615Z,31.40
2022-11-09T00:33:48.241Z,34.30
2022-11-09T00:36:14.932Z,32.65
2022-11-09T00:38:42.517Z,33.65
2022-11-09T00:41:10.901Z,37.17
2022-11-09T00:43:38.246Z,36.38
2022-11-09T00:46:05.650Z,33.03
2022-11-09T00:48:32.365Z,32.90
2022-11-09T00:50:59.589Z,33.55
2022-11-09T00:53:27.229Z,33.20
2022-11-09T00:55:55.545Z,31.40
2022-11-09T00:58:22.453Z,30.13
2022-11-09T01:00:49.395Z,36.13
2022-11-09T01:03:16.259Z,33.30
2022-11-09T01:05:43.136Z,31.85
2022-11-09T01:08:10.301Z,32.25
2022-11-09T01:10:40.528Z,37.17
2022-11-09T01:13:07.238Z,39.97
2022-11-09T01:15:34.041Z,37.92
2022-11-09T01:18:00.656Z,32.45
2022-11-09T01:20:27.246Z,31.73
2022-11-09T01:22:54.612Z,32.85
2022-11-09T01:25:21.540Z,29.58
2022-11-09T01:27:48.134Z,28.13
2022-11-09T01:30:15.149Z,31.63
2022-11-09T01:32:41.883Z,33.80
2022-11-09T01:35:08.978Z,34.40
2022-11-09T01:37:35.589Z,32.45
2022-11-09T01:40:02.164Z,32.15
2022-11-09T01:42:29.358Z,39.67
2022-11-09T01:45:17.814Z,33.40
2022-11-09T01:47:47.713Z,34.33
2022-11-09T01:50:18.616Z,33.65
2022-11-09T01:52:49.109Z,35.95
2022-11-09T01:55:20.826Z,39.55
2022-11-09T01:57:50.707Z,34.92
2022-11-09T02:00:18.184Z,38.92
2022-11-09T02:02:50.991Z,35.63
2022-11-09T02:05:21.918Z,36.15
2022-11-09T02:07:49.741Z,39.92
2022-11-09T02:10:31.962Z,37.60
2022-11-09T02:12:59.612Z,38.08
2022-11-09T02:15:27.015Z,34.28
2022-11-09T02:17:55.298Z,34.67
2022-11-09T02:20:23.376Z,35.55
2022-11-09T02:22:50.030Z,35.85
2022-11-09T02:25:17.716Z,34.05
2022-11-09T02:27:44.719Z,31.63
2022-11-09T02:30:12.753Z,32.63
2022-11-09T02:32:39.390Z,32.58
2022-11-09T02:35:06.212Z,30.52
2022-11-09T02:37:39.166Z,32.30
2022-11-09T02:40:17.130Z,29.95
2022-11-09T02:42:43.927Z,32.85
2022-11-09T02:45:10.953Z,32.88
2022-11-09T02:47:37.657Z,33.58
2022-11-09T02:50:04.714Z,26.50
2022-11-09T02:52:31.274Z,31.15
2022-11-09T02:54:57.908Z,26.58
2022-11-09T02:57:24.512Z,29.60
2022-11-09T02:59:51.279Z,29.38
2022-11-09T03:02:17.900Z,28.08
2022-11-09T03:04:44.502Z,32.20
2022-11-09T03:07:11.227Z,29.42
2022-11-09T03:09:37.995Z,32.78
2022-11-09T03:12:24.822Z,31.90
2022-11-09T03:14:51.521Z,33.85
2022-11-09T03:17:18.566Z,33.22
2022-11-09T03:19:45.335Z,33.97
2022-11-09T03:22:11.962Z,32.80
2022-11-09T03:24:38.861Z,33.65
2022-11-09T03:27:05.528Z,38.25
2022-11-09T03:29:32.154Z,38.92
2022-11-09T03:31:58.815Z,35.25
2022-11-09T03:34:25.401Z,37.55
2022-11-09T03:36:52.147Z,36.08
2022-11-09T03:39:18.739Z,39.58
2022-11-09T03:41:45.301Z,40.17
2022-11-09T03:44:12.282Z,39.03
2022-11-09T03:46:38.980Z,39.47
2022-11-09T03:49:05.723Z,40.53
2022-11-09T03:51:32.389Z,40.10
2022-11-09T03:53:59.144Z,40.22
2022-11-09T03:56:25.737Z,41.10
2022-11-09T03:58:52.327Z,44.92
2022-11-09T04:01:18.898Z,41.67
2022-11-09T04:03:45.488Z,38.63
2022-11-09T04:06:12.465Z,41.83
2022-11-09T04:08:39.082Z,41.83
2022-11-09T04:11:06.019Z,44.05
2022-11-09T04:13:33.017Z,37.88
2022-11-09T04:15:59.584Z,41.45
2022-11-09T04:18:26.511Z,45.28
2022-11-09T04:20:53.158Z,45.72
2022-11-09T04:23:20.036Z,44.83
2022-11-09T04:25:46.792Z,45.17
2022-11-09T04:28:13.450Z,46.17
2022-11-09T04:30:40.234Z,44.13
2022-11-09T04:33:06.898Z,41.88
2022-11-09T04:35:35.091Z,47.30
2022-11-09T04:38:13.125Z,46.22
2022-11-09T04:40:40.126Z,49.67
2022-11-09T04:43:08.336Z,44.90
2022-11-09T04:45:35.644Z,47.85
2022-11-09T04:48:04.945Z,47.85
2022-11-09T04:50:32.213Z,59.67
2022-11-09T04:53:10.929Z,62.17
2022-11-09T04:55:38.153Z,50.88
2022-11-09T04:58:05.366Z,54.20
2022-11-09T05:00:32.925Z,47.83
2022-11-09T05:03:01.890Z,50.83
2022-11-09T05:05:29.353Z,50.83
2022-11-09T05:07:56.400Z,48.90
2022-11-09T05:10:23.130Z,53.15
2022-11-09T05:12:49.909Z,56.55
2022-11-09T05:15:16.734Z,55.17
2022-11-09T05:17:43.363Z,56.65
2022-11-09T05:20:10.760Z,50.53
2022-11-09T05:22:58.860Z,49.45
2022-11-09T05:25:25.533Z,42.83
2022-11-09T05:27:52.582Z,45.08
2022-11-09T05:30:19.367Z,54.33
2022-11-09T05:32:45.907Z,57.97
2022-11-09T05:35:12.647Z,61.63
2022-11-09T05:37:40.343Z,59.33
2022-11-09T05:40:09.347Z,51.53
2022-11-09T05:42:40.586Z,51.10
2022-11-09T05:45:40.104Z,51.25
2022-11-09T05:47:56.199Z,48.00
2022-11-09T05:50:22.955Z,48.42
2022-11-09T05:52:49.529Z,42.88
2022-11-09T05:55:16.130Z,49.80
2022-11-09T05:57:42.654Z,49.72
2022-11-09T06:00:11.122Z,57.47
2022-11-09T06:02:38.547Z,49.63
2022-11-09T06:05:05.374Z,48.15
2022-11-09T06:07:33.192Z,42.28
2022-11-09T06:09:59.950Z,39.95
2022-11-09T06:12:26.639Z,42.30
2022-11-09T06:14:53.273Z,46.17
2022-11-09T06:17:19.870Z,44.97
2022-11-09T06:19:46.489Z,40.15
2022-11-09T06:22:13.175Z,45.88
2022-11-09T06:24:40.151Z,51.80
2022-11-09T06:27:06.915Z,35.67
2022-11-09T06:29:33.684Z,39.75
2022-11-09T06:32:00.498Z,34.15
2022-11-09T06:34:27.247Z,29.65
2022-11-09T06:36:54.155Z,36.03
2022-11-09T06:39:21.342Z,38.60
2022-11-09T06:41:48.018Z,31.63
2022-11-09T06:44:15.462Z,39.85
2022-11-09T06:46:42.082Z,32.70
2022-11-09T06:49:09.071Z,43.55
2022-11-09T06:51:35.759Z,34.10
2022-11-09T06:54:02.379Z,33.63
2022-11-09T06:56:30.571Z,40.28
2022-11-09T06:58:57.239Z,32.05
2022-11-09T07:01:28.226Z,34.53
2022-11-09T07:03:54.898Z,32.00
2022-11-09T07:09:05.788Z,36.88
2022-11-09T07:11:32.503Z,31.85
2022-11-09T07:13:59.582Z,35.63
2022-11-09T07:16:27.239Z,33.47
2022-11-09T07:18:53.855Z,27.70
2022-11-09T07:21:20.471Z,28.38
2022-11-09T07:23:48.430Z,34.25
2022-11-09T07:26:15.802Z,28.63
2022-11-09T07:28:42.784Z,31.75
2022-11-09T07:31:09.701Z,34.70
2022-11-09T07:33:36.629Z,28.27
2022-11-09T07:36:05.583Z,27.05
2022-11-09T07:38:32.683Z,29.38
2022-11-09T07:41:02.542Z,30.10
2022-11-09T07:43:29.724Z,25.33
2022-11-09T07:45:56.581Z,29.08
2022-11-09T07:48:23.399Z,33.38
2022-11-09T07:50:50.234Z,30.67
2022-11-09T07:53:17.629Z,32.78
2022-11-09T07:55:44.647Z,26.58
2022-11-09T07:58:14.127Z,34.17
2022-11-09T08:00:42.092Z,32.92
2022-11-09T08:03:09.493Z,28.23
2022-11-09T08:05:36.338Z,31.63
2022-11-09T08:08:06.363Z,28.33
2022-11-09T08:10:34.811Z,35.28
2022-11-09T08:13:03.997Z,31.05
2022-11-09T08:15:30.989Z,34.65
2022-11-09T08:18:03.346Z,34.10
2022-11-09T08:20:30.416Z,28.63
2022-11-09T08:23:02.364Z,28.50
2022-11-09T08:25:31.655Z,33.53
2022-11-09T08:27:58.783Z,33.28
2022-11-09T08:30:26.229Z,31.13
2022-11-09T08:32:53.374Z,34.70
2022-11-09T08:35:22.336Z,35.47
2022-11-09T08:37:50.846Z,33.75
2022-11-09T08:40:25.842Z,34.05
2022-11-09T08:42:53.551Z,39.75
2022-11-09T08:45:20.937Z,31.50
2022-11-09T08:47:47.964Z,33.75
2022-11-09T08:50:15.827Z,35.63
2022-11-09T08:52:42.949Z,36.10
2022-11-09T08:55:10.234Z,35.75
2022-11-09T08:57:36.836Z,37.95
2022-11-09T09:00:04.906Z,35.25
2022-11-09T09:02:31.491Z,34.47
2022-11-09T09:04:58.000Z,34.38
2022-11-09T09:07:24.781Z,34.28
2022-11-09T09:09:51.477Z,35.83
2022-11-09T09:12:18.165Z,32.63
2022-11-09T09:14:44.748Z,36.00
2022-11-09T09:17:11.846Z,35.55
2022-11-09T09:19:38.552Z,35.13
2022-11-09T09:22:05.973Z,35.25
2022-11-09T09:24:32.627Z,34.90
2022-11-09T09:26:59.378Z,35.05
2022-11-09T09:29:25.958Z,41.70
2022-11-09T09:31:52.493Z,36.58
2022-11-09T09:34:19.102Z,42.25
2022-11-09T09:36:48.331Z,35.92
2022-11-09T09:39:15.481Z,37.05
2022-11-09T09:42:02.330Z,37.40
2022-11-09T09:44:42.013Z,36.83
2022-11-09T09:47:27.776Z,34.63
2022-11-09T09:50:11.002Z,34.42
2022-11-09T09:53:23.702Z,39.28
2022-11-09T09:55:56.556Z,39.50
2022-11-09T09:58:29.023Z,36.13
2022-11-09T10:01:05.023Z,37.22
2022-11-09T10:03:31.802Z,42.20
2022-11-09T10:06:25.731Z,34.72
2022-11-09T10:09:20.120Z,37.90
2022-11-09T10:11:49.624Z,38.40
2022-11-09T10:14:40.561Z,42.00
2022-11-09T10:17:43.047Z,35.70
2022-11-09T10:20:22.268Z,39.08
2022-11-09T10:23:14.447Z,39.20
2022-11-09T10:29:09.253Z,38.33
2022-11-09T10:31:32.851Z,42.35
2022-11-09T10:34:16.527Z,38.42
2022-11-09T10:37:06.238Z,38.20
2022-11-09T10:39:42.552Z,42.95
2022-11-09T10:42:12.417Z,38.22
2022-11-09T10:44:38.986Z,38.67
2022-11-09T10:47:10.040Z,38.25
2022-11-09T10:49:38.041Z,37.25
2022-11-09T10:52:05.911Z,33.75
2022-11-09T10:54:38.350Z,37.90
2022-11-09T10:57:18.526Z,43.67
2022-11-09T10:59:57.499Z,40.42
2022-11-09T11:02:27.124Z,38.38
2022-11-09T11:04:59.422Z,39.08
2022-11-09T11:07:26.218Z,35.67
2022-11-09T11:09:52.926Z,37.17
2022-11-09T11:12:22.821Z,33.42
2022-11-09T11:14:49.932Z,38.58
2022-11-09T11:17:26.707Z,39.45
2022-11-09T11:19:53.397Z,35.15
2022-11-09T11:22:21.833Z,37.78
2022-11-09T11:24:58.667Z,35.22
2022-11-09T11:27:46.384Z,33.08
2022-11-09T11:30:19.529Z,41.00
2022-11-09T11:32:50.457Z,35.83
2022-11-09T11:35:28.631Z,38.35
2022-11-09T11:38:10.414Z,32.10
2022-11-09T11:41:24.917Z,89.05
2022-11-09T11:44:20.088Z,38.45
2022-11-09T11:47:10.303Z,35.95
2022-11-09T11:49:56.210Z,38.42
2022-11-09T11:52:43.378Z,37.67
2022-11-09T11:55:47.476Z,35.70
2022-11-09T11:58:26.027Z,35.45
2022-11-09T12:00:52.604Z,37.28
2022-11-09T12:03:50.683Z,37.53
2022-11-09T12:06:23.408Z,36.70
2022-11-09T12:09:15.511Z,36.63
2022-11-09T12:12:25.846Z,30.88
2022-11-09T12:15:43.107Z,41.50
2022-11-09T12:18:28.411Z,34.60
2022-11-09T12:21:04.030Z,32.75
2022-11-09T12:23:42.740Z,32.38
2022-11-09T12:26:35.192Z,33.50
2022-11-09T12:29:27.985Z,31.80
2022-11-09T12:32:04.205Z,30.35
2022-11-09T12:34:41.353Z,32.22
2022-11-09T12:37:13.730Z,32.38
2022-11-09T12:39:51.053Z,33.78
2022-11-09T12:42:24.631Z,40.90
2022-11-09T12:45:18.872Z,37.15
2022-11-09T12:47:46.269Z,33.30
2022-11-09T12:50:25.708Z,31.20
2022-11-09T12:52:53.696Z,29.48
2022-11-09T12:55:39.392Z,27.48
2022-11-09T12:58:06.334Z,29.60
2022-11-09T13:00:35.639Z,32.05
2022-11-09T13:03:14.651Z,31.30
2022-11-09T13:05:43.129Z,39.47
2022-11-09T13:08:18.814Z,31.40
2022-11-09T13:10:45.578Z,32.08
2022-11-09T13:13:12.057Z,34.15
2022-11-09T13:15:40.398Z,33.58
2022-11-09T13:18:35.428Z,31.88
2022-11-09T13:21:23.731Z,34.58
2022-11-09T13:24:10.367Z,34.58
2022-11-09T13:26:37.674Z,35.00
2022-11-09T13:29:22.425Z,35.50
2022-11-09T13:32:12.682Z,35.58
2022-11-09T13:34:43.636Z,35.88
2022-11-09T13:37:47.072Z,33.72
2022-11-09T13:40:31.952Z,33.08
2022-11-09T13:43:03.038Z,32.05
2022-11-09T13:45:39.055Z,33.08
2022-11-09T13:48:06.810Z,31.08
2022-11-09T13:50:34.859Z,34.20
2022-11-09T13:53:02.712Z,29.25
2022-11-09T13:55:36.793Z,35.17
2022-11-09T13:58:21.721Z,33.90
2022-11-09T14:00:48.989Z,35.15
2022-11-09T14:03:25.865Z,38.50
2022-11-09T14:05:59.659Z,34.70
2022-11-09T14:08:29.365Z,33.90
2022-11-09T14:11:10.937Z,37.42
2022-11-09T14:14:11.764Z,35.13
2022-11-09T14:16:47.640Z,33.53
2022-11-09T14:19:38.667Z,35.55
2022-11-09T14:22:16.347Z,33.40
2022-11-09T14:24:43.402Z,34.05
2022-11-09T14:27:10.015Z,35.33
2022-11-09T14:29:46.661Z,33.33
2022-11-09T14:32:24.720Z,30.75
2022-11-09T14:34:51.490Z,33.20
2022-11-09T14:37:19.052Z,35.25
2022-11-09T14:39:54.214Z,30.85
2022-11-09T14:42:23.656Z,33.80
2022-11-09T14:44:50.497Z,34.45
2022-11-09T14:47:29.303Z,34.03
2022-11-09T14:49:56.276Z,34.10
2022-11-09T14:52:27.874Z,33.83
2022-11-09T14:54:54.687Z,30.98
2022-11-09T14:57:22.977Z,41.10
2022-11-09T14:59:49.623Z,36.60
2022-11-09T15:02:19.710Z,34.63
2022-11-09T15:05:01.819Z,37.15
2022-11-09T15:07:33.170Z,38.95
2022-11-09T15:10:02.787Z,42.33
2022-11-09T15:12:30.611Z,37.85
2022-11-09T15:15:03.270Z,39.35
2022-11-09T15:17:36.383Z,42.47
2022-11-09T15:20:09.246Z,39.75
2022-11-09T15:22:48.580Z,43.75
2022-11-09T15:25:21.014Z,45.47
2022-11-09T15:28:17.040Z,39.90
2022-11-09T15:30:48.728Z,46.97
2022-11-09T15:33:18.450Z,46.25
2022-11-09T15:35:58.567Z,50.60
2022-11-09T15:38:34.478Z,45.25
2022-11-09T15:41:02.157Z,41.15
2022-11-09T15:43:29.054Z,43.30
2022-11-09T15:45:57.331Z,43.85
2022-11-09T15:48:24.042Z,49.22
2022-11-09T15:50:52.379Z,43.40
2022-11-09T15:53:19.103Z,45.67
2022-11-09T15:55:46.192Z,44.90
2022-11-09T15:58:14.832Z,46.78
2022-11-09T16:00:42.161Z,42.72
2022-11-09T16:03:10.226Z,46.17
2022-11-09T16:05:37.131Z,44.28
2022-11-09T16:08:04.119Z,46.67
2022-11-09T16:10:30.995Z,44.05
2022-11-09T16:12:57.786Z,47.90
2022-11-09T16:15:24.985Z,52.50
2022-11-09T16:17:53.387Z,52.97
2022-11-09T16:20:21.430Z,49.20
2022-11-09T16:22:48.526Z,48.58
2022-11-09T16:25:15.801Z,47.85
2022-11-09T16:27:50.126Z,54.47
2022-11-09T16:30:18.258Z,52.78
2022-11-09T16:32:45.017Z,53.85
2022-11-09T16:35:28.265Z,54.03
2022-11-09T16:37:58.067Z,54.25
2022-11-09T16:40:25.878Z,55.53
2022-11-09T16:42:52.588Z,64.47
2022-11-09T16:45:20.415Z,52.20
2022-11-09T16:47:56.417Z,51.47
2022-11-09T16:50:24.455Z,55.13
2022-11-09T16:52:51.035Z,56.40
2022-11-09T16:55:17.794Z,55.25
2022-11-09T16:57:46.178Z,54.92
2022-11-09T17:00:13.664Z,54.92
2022-11-09T17:02:40.321Z,63.70
2022-11-09T17:05:07.687Z,60.10
2022-11-09T17:07:42.185Z,56.72
2022-11-09T17:10:10.079Z,61.30
2022-11-09T17:12:36.664Z,55.33
2022-11-09T17:15:03.971Z,57.20
2022-11-09T17:17:30.815Z,49.45
2022-11-09T17:19:57.405Z,49.40
2022-11-09T17:22:24.161Z,54.65
2022-11-09T17:24:51.134Z,58.38
2022-11-09T17:27:17.807Z,58.75
2022-11-09T17:29:44.347Z,54.70
2022-11-09T17:32:11.556Z,56.15
2022-11-09T17:34:38.130Z,48.83
2022-11-09T17:37:05.736Z,52.17
2022-11-09T17:39:33.443Z,55.05
2022-11-09T17:42:00.007Z,57.90
2022-11-09T17:44:26.654Z,52.58
2022-11-09T17:46:53.546Z,55.67
2022-11-09T17:49:20.155Z,57.42
2022-11-09T17:51:47.137Z,53.67
2022-11-09T17:54:15.087Z,61.33
2022-11-09T17:56:42.137Z,57.90
2022-11-09T17:59:08.934Z,55.47
2022-11-09T18:01:41.055Z,65.35
2022-11-09T18:04:10.922Z,61.05
2022-11-09T18:06:38.574Z,60.88
2022-11-09T18:11:52.236Z,58.60
2022-11-09T18:14:18.862Z,53.38
2022-11-09T18:16:45.573Z,59.05
2022-11-09T18:19:12.513Z,51.92
2022-11-09T18:21:39.287Z,46.03
2022-11-09T18:24:06.369Z,51.58
2022-11-09T18:26:33.185Z,59.30
2022-11-09T18:29:00.312Z,58.33
2022-11-09T18:31:27.182Z,52.95
2022-11-09T18:33:54.025Z,54.40
2022-11-09T18:36:21.795Z,49.35
2022-11-09T18:38:51.166Z,51.05
2022-11-09T18:41:21.854Z,49.83
2022-11-09T18:43:49.895Z,58.08
2022-11-09T18:46:18.124Z,60.53
2022-11-09T18:48:45.442Z,48.40
2022-11-09T18:51:12.431Z,49.05
2022-11-09T18:53:41.683Z,53.10
2022-11-09T18:56:18.347Z,55.05
2022-11-09T18:58:46.054Z,59.00
2022-11-09T19:01:13.075Z,57.55
2022-11-09T19:03:39.907Z,59.08
2022-11-09T19:06:08.467Z,52.08
2022-11-09T19:08:54.086Z,57.95
2022-11-09T19:11:20.803Z,52.00
2022-11-09T19:13:47.657Z,47.95
2022-11-09T19:16:15.704Z,52.40
2022-11-09T19:18:42.604Z,52.95
2022-11-09T19:21:22.755Z,51.03
2022-11-09T19:23:49.295Z,51.50
2022-11-09T19:26:15.892Z,52.60
2022-11-09T19:28:42.650Z,47.03
2022-11-09T19:31:13.868Z,50.05
2022-11-09T19:33:40.457Z,55.83
2022-11-09T19:38:54.046Z,50.60
2022-11-09T19:41:21.794Z,50.20
2022-11-09T19:43:50.052Z,51.28
2022-11-09T19:46:17.902Z,55.00
2022-11-09T19:48:46.016Z,58.15
2022-11-09T19:51:14.687Z,51.10
2022-11-09T19:53:42.658Z,55.58
2022-11-09T19:56:11.565Z,53.25
2022-11-09T19:58:38.434Z,57.33
2022-11-09T20:01:10.276Z,50.25
2022-11-09T20:03:37.541Z,51.83
2022-11-09T20:06:05.599Z,55.55
2022-11-09T20:08:36.627Z,48.72
2022-11-09T20:11:09.216Z,51.38
2022-11-09T20:13:38.317Z,47.78
2022-11-09T20:16:07.416Z,50.25
2022-11-09T20:18:38.439Z,49.22
2022-11-09T20:21:06.993Z,50.50
2022-11-09T20:23:33.742Z,55.53
2022-11-09T20:26:07.781Z,52.05
2022-11-09T20:28:34.424Z,52.65
2022-11-09T20:31:01.160Z,54.05
2022-11-09T20:33:27.806Z,56.10
2022-11-09T20:35:55.441Z,61.20
2022-11-09T20:38:23.299Z,61.28
2022-11-09T20:40:57.458Z,73.90
2022-11-09T20:43:26.039Z,78.70
2022-11-09T20:45:53.825Z,92.07
2022-11-09T20:48:46.935Z,130.93
2022-11-09T20:51:09.776Z,92.28
2022-11-09T20:53:36.988Z,196.05
2022-11-09T20:56:04.114Z,175.70
2022-11-09T20:58:30.859Z,138.30
2022-11-09T21:01:12.900Z,156.25
2022-11-09T21:03:40.005Z,170.05
2022-11-09T21:06:07.695Z,186.55
2022-11-09T21:08:34.509Z,174.40
2022-11-09T21:11:03.022Z,197.75
2022-11-09T21:13:29.817Z,194.95
2022-11-09T21:16:03.779Z,184.60
2022-11-09T21:18:30.282Z,161.70
2022-11-09T21:20:56.825Z,145.75
2022-11-09T21:23:23.382Z,140.82
2022-11-09T21:26:08.403Z,148.43
2022-11-09T21:28:53.392Z,139.95
2022-11-09T21:31:19.888Z,129.07
2022-11-09T21:33:46.409Z,135.00
2022-11-09T21:36:14.723Z,136.23
2022-11-09T21:38:41.559Z,136.48
2022-11-09T21:41:27.846Z,140.52
2022-11-09T21:43:55.562Z,134.82
2022-11-09T21:46:25.229Z,130.38
2022-11-09T21:48:51.987Z,126.43
2022-11-09T21:51:18.665Z,115.47
2022-11-09T21:53:46.631Z,114.15
2022-11-09T21:56:13.530Z,120.10
2022-11-09T21:58:40.186Z,112.68
2022-11-09T22:01:10.834Z,108.28
2022-11-09T22:03:38.033Z,109.18
2022-11-09T22:06:05.114Z,102.53
2022-11-09T22:08:31.814Z,105.03
2022-11-09T22:11:13.954Z,107.47
2022-11-09T22:14:00.264Z,109.38
2022-11-09T22:16:29.878Z,103.82
2022-11-09T22:19:15.252Z,109.53
2022-11-09T22:21:44.844Z,109.38
2022-11-09T22:24:11.672Z,108.60
2022-11-09T22:26:38.399Z,112.20
2022-11-09T22:29:05.515Z,116.43
2022-11-09T22:31:32.179Z,120.80
2022-11-09T22:33:58.737Z,109.15
2022-11-09T22:36:25.364Z,100.55
2022-11-09T22:38:51.929Z,105.90
2022-11-09T22:41:18.498Z,113.90
2022-11-09T22:43:45.096Z,105.55
2022-11-09T22:46:14.368Z,113.90
2022-11-09T22:48:42.572Z,100.68
2022-11-09T22:51:12.266Z,99.07
2022-11-09T22:53:39.229Z,108.07
2022-11-09T22:56:06.339Z,107.03
2022-11-09T22:58:33.266Z,100.80
2022-11-09T23:01:09.164Z,96.03
2022-11-09T23:03:36.310Z,96.97
2022-11-09T23:06:05.997Z,95.70
2022-11-09T23:08:38.190Z,83.53
2022-11-09T23:11:11.699Z,81.55
2022-11-09T23:13:38.597Z,79.35
2022-11-09T23:16:07.897Z,75.65
2022-11-09T23:18:53.871Z,79.03
2022-11-09T23:21:34.119Z,76.35
2022-11-09T23:24:03.535Z,71.05
2022-11-09T23:26:31.349Z,69.97
2022-11-09T23:28:58.463Z,64.32
2022-11-09T23:31:26.902Z,61.13
2022-11-09T23:33:56.111Z,71.43
2022-11-09T23:36:24.756Z,76.03
2022-11-09T23:38:52.038Z,68.53
2022-11-09T23:41:19.358Z,86.38
2022-11-09T23:43:49.280Z,80.30
2022-11-09T23:46:17.862Z,75.80
2022-11-09T23:48:44.759Z,69.43
2022-11-09T23:51:11.664Z,69.38
2022-11-09T23:53:38.786Z,66.57
2022-11-09T23:56:11.680Z,67.28
2022-11-09T23:58:38.609Z,80.93
